OOCL Oakland — 3EKJ6 — position and weather

sailwx.info

Track history (hours):
 
Tides and Currents Weather Stations Pressure Air Temp Water Temp Dewpoint Dewpoint Depression Visibility Wind Speed Wind Dir Waves Ship Positions

OOCL Oakland

Last reported at 2016-Jun-26 21:32 UTC. Time now 2016-Jun-28 18:52 UTC.
Position S 26°43' E 153°11'.

Length 280 m; draft 11.6 m.

Type: Ship. MMSI: 372703235.

Date/timePositionNaut miles runAvg speedWind from/ knotsBaromVisibWave heightAir tempDewpointWater temp
2016-Jun-26 21:32S 26°43' E 153°11'1111.5
2016-Jun-26 20:33S 26°55' E 153°11'1514.6
2016-Jun-26 19:33S 27°07' E 153°20'1414.1
2016-Jun-26 18:33S 27°19' E 153°12'4 1.8
2016-Jun-26 16:28S 27°22' E 153°10'0 0.0
2016-Jun-26 15:31S 27°22' E 153°10'0 0.0
2016-Jun-26 14:31S 27°22' E 153°10'0 0.0
2016-Jun-26 13:31S 27°22' E 153°10'0 0.0
2016-Jun-26 12:31S 27°22' E 153°10'0 0.0
2016-Jun-26 11:31S 27°22' E 153°10'0 0.0
2016-Jun-26 10:31S 27°22' E 153°10'0 0.0
2016-Jun-26 09:31S 27°22' E 153°10'0 0.0
2016-Jun-26 08:31S 27°22' E 153°10'0 0.0
2016-Jun-26 07:31S 27°22' E 153°10'0 0.0
2016-Jun-26 06:31S 27°22' E 153°10'0 0.0
2016-Jun-26 05:31S 27°22' E 153°10'0 0.0
2016-Jun-26 04:28S 27°22' E 153°10'0 0.0
2016-Jun-26 03:31S 27°22' E 153°10'0 0.0
2016-Jun-26 02:31S 27°22' E 153°10'0 0.0
2016-Jun-26 01:28S 27°22' E 153°10'0 0.0
2016-Jun-26 00:31S 27°22' E 153°10'0 0.0
2016-Jun-25 23:31S 27°22' E 153°10'0 0.0
2016-Jun-25 22:31S 27°22' E 153°10'0 0.0
2016-Jun-25 21:31S 27°22' E 153°10'0 0.0
2016-Jun-25 20:31S 27°22' E 153°10'0 0.0
2016-Jun-25 19:31S 27°22' E 153°10'0 0.0
2016-Jun-25 18:31S 27°22' E 153°10'0 0.0
2016-Jun-25 17:31S 27°22' E 153°10'0 0.0
2016-Jun-25 16:31S 27°22' E 153°10'0 0.0
2016-Jun-25 15:31S 27°22' E 153°10'0 0.0
2016-Jun-25 14:31S 27°22' E 153°10'0 0.0
2016-Jun-25 13:31S 27°22' E 153°10'0 0.0
2016-Jun-25 12:33S 27°22' E 153°10'7 6.8
2016-Jun-25 11:33S 27°17' E 153°15'1413.9
2016-Jun-25 10:33S 27°03' E 153°17'1515.3
2016-Jun-25 09:33S 26°49' E 153°11'7 6.7
2016-Jun-25 08:33S 26°43' E 153°14'9 7.9
2016-Jun-25 07:28S 26°46' E 153°23'1010.4
2016-Jun-25 06:33S 26°53' E 153°30'1212.3
2016-Jun-25 05:33S 27°03' E 153°38'1413.9
2016-Jun-25 04:33S 27°16' E 153°41'2020.1
2016-Jun-25 03:33S 27°36' E 153°45'2020.3
2016-Jun-25 02:33S 27°56' E 153°47'27419.6
2016-Jun-24 12:33S 32°25' E 152°44'2121.2
2016-Jun-24 11:33S 32°45' E 152°34'2020.2
2016-Jun-24 10:33S 33°04' E 152°27'21419.4
2016-Jun-23 23:31S 36°22' E 150°49'11919.9
2016-Jun-23 17:33S 38°02' E 149°29'2221.5
2016-Jun-23 16:33S 38°15' E 149°08'2221.6
2016-Jun-23 15:33S 38°29' E 148°46'8220.4
2016-Jun-23 11:33S 39°06' E 147°13'2121.0
2016-Jun-23 10:33S 39°13' E 146°48'2121.0
2016-Jun-23 09:33S 39°17' E 146°21'2120.9
2016-Jun-23 08:33S 39°08' E 145°56'2221.5
2016-Jun-23 07:33S 38°57' E 145°33'6812.4
2016-Jun-23 02:04S 37°55' E 144°56'7 0.8
2016-Jun-22 17:29S 37°49' E 144°55'0 0.0
2016-Jun-22 16:32S 37°49' E 144°55'0 0.0
2016-Jun-22 15:32S 37°49' E 144°55'0 0.0
2016-Jun-22 14:32S 37°49' E 144°55'0 0.0
2016-Jun-22 13:26S 37°49' E 144°55'0 0.0
2016-Jun-22 12:29S 37°49' E 144°55'0 0.0
2016-Jun-22 08:17S 37°49' E 144°55'0 0.0
2016-Jun-22 01:29S 37°49' E 144°55'0 0.0
2016-Jun-21 19:32S 37°49' E 144°55'0 0.0
2016-Jun-21 18:26S 37°49' E 144°55'0 0.0
2016-Jun-21 17:32S 37°49' E 144°55'0 0.0
2016-Jun-21 16:26S 37°49' E 144°55'0 0.0
2016-Jun-21 15:32S 37°49' E 144°55'0 0.0
2016-Jun-21 14:32S 37°49' E 144°55'0 0.0
2016-Jun-21 13:33S 37°49' E 144°55'4 3.6
2016-Jun-21 12:25S 37°53' E 144°56'9011.4
2016-Jun-21 04:33S 39°07' E 146°01'1817.7
2016-Jun-21 03:32S 39°11' E 146°24'1818.9
2016-Jun-21 02:33S 39°03' E 146°45'1919.4
2016-Jun-21 01:34S 38°54' E 147°07'7918.2
2016-Jun-20 21:13S 38°24' E 148°41'1116.2
2016-Jun-20 20:33S 38°18' E 148°52'1616.1
2016-Jun-20 19:33S 38°09' E 149°09'1515.4
2016-Jun-20 18:33S 38°01' E 149°25'1413.6
2016-Jun-20 17:33S 37°54' E 149°40'1312.8
2016-Jun-20 16:33S 37°47' E 149°54'1313.3
2016-Jun-20 15:34S 37°38' E 150°07'1414.2
2016-Jun-20 14:34S 37°26' E 150°15'1716.7
2016-Jun-20 13:34S 37°10' E 150°21'1717.2
2016-Jun-20 12:33S 36°53' E 150°26'1918.6
2016-Jun-20 11:34S 36°35' E 150°32'2020.2
2016-Jun-20 10:33S 36°15' E 150°38'  
2016-Jun-17 21:27S 33°37' E 151°43'1314.0
2016-Jun-17 20:29S 33°26' E 151°53'2914.7
2016-Jun-17 18:30S 33°02' E 152°13'1616.4
2016-Jun-17 17:33S 32°49' E 152°24'1616.5
2016-Jun-17 16:34S 32°36' E 152°35'1615.8
2016-Jun-17 15:34S 32°22' E 152°45'1615.8
2016-Jun-17 14:33S 32°07' E 152°51'1615.6
2016-Jun-17 13:34S 31°53' E 152°56'24117.0
2016-Jun-16 23:23S 27°56' E 153°54'1718.5
2016-Jun-16 22:27S 27°39' E 153°54'  
Track history (hours):
 
Tides and Currents Weather Stations Pressure Air Temp Water Temp Dewpoint Dewpoint Depression Visibility Wind Speed Wind Dir Waves Ship Positions

OOCL Oakland

Last reported at 2016-Jun-26 21:32 UTC. Time now 2016-Jun-28 18:52 UTC.
Position S 26°43' E 153°11'.

Length 280 m; draft 11.6 m.

Type: Ship. MMSI: 372703235.

Date/timePositionNaut miles runAvg speedWind from/ knotsBaromVisibWave heightAir tempDewpointWater temp
2016-Jun-26 21:32S 26°43' E 153°11'1111.5
2016-Jun-26 20:33S 26°55' E 153°11'1514.6
2016-Jun-26 19:33S 27°07' E 153°20'1414.1
2016-Jun-26 18:33S 27°19' E 153°12'4 1.8
2016-Jun-26 16:28S 27°22' E 153°10'0 0.0
2016-Jun-26 15:31S 27°22' E 153°10'0 0.0
2016-Jun-26 14:31S 27°22' E 153°10'0 0.0
2016-Jun-26 13:31S 27°22' E 153°10'0 0.0
2016-Jun-26 12:31S 27°22' E 153°10'0 0.0
2016-Jun-26 11:31S 27°22' E 153°10'0 0.0
2016-Jun-26 10:31S 27°22' E 153°10'0 0.0
2016-Jun-26 09:31S 27°22' E 153°10'0 0.0
2016-Jun-26 08:31S 27°22' E 153°10'0 0.0
2016-Jun-26 07:31S 27°22' E 153°10'0 0.0
2016-Jun-26 06:31S 27°22' E 153°10'0 0.0
2016-Jun-26 05:31S 27°22' E 153°10'0 0.0
2016-Jun-26 04:28S 27°22' E 153°10'0 0.0
2016-Jun-26 03:31S 27°22' E 153°10'0 0.0
2016-Jun-26 02:31S 27°22' E 153°10'0 0.0
2016-Jun-26 01:28S 27°22' E 153°10'0 0.0
2016-Jun-26 00:31S 27°22' E 153°10'0 0.0
2016-Jun-25 23:31S 27°22' E 153°10'0 0.0
2016-Jun-25 22:31S 27°22' E 153°10'0 0.0
2016-Jun-25 21:31S 27°22' E 153°10'0 0.0
2016-Jun-25 20:31S 27°22' E 153°10'0 0.0
2016-Jun-25 19:31S 27°22' E 153°10'0 0.0
2016-Jun-25 18:31S 27°22' E 153°10'0 0.0
2016-Jun-25 17:31S 27°22' E 153°10'0 0.0
2016-Jun-25 16:31S 27°22' E 153°10'0 0.0
2016-Jun-25 15:31S 27°22' E 153°10'0 0.0
2016-Jun-25 14:31S 27°22' E 153°10'0 0.0
2016-Jun-25 13:31S 27°22' E 153°10'0 0.0
2016-Jun-25 12:33S 27°22' E 153°10'7 6.8
2016-Jun-25 11:33S 27°17' E 153°15'1413.9
2016-Jun-25 10:33S 27°03' E 153°17'1515.3
2016-Jun-25 09:33S 26°49' E 153°11'7 6.7
2016-Jun-25 08:33S 26°43' E 153°14'9 7.9
2016-Jun-25 07:28S 26°46' E 153°23'1010.4
2016-Jun-25 06:33S 26°53' E 153°30'1212.3
2016-Jun-25 05:33S 27°03' E 153°38'1413.9
2016-Jun-25 04:33S 27°16' E 153°41'2020.1
2016-Jun-25 03:33S 27°36' E 153°45'2020.3
2016-Jun-25 02:33S 27°56' E 153°47'27419.6
2016-Jun-24 12:33S 32°25' E 152°44'2121.2
2016-Jun-24 11:33S 32°45' E 152°34'2020.2
2016-Jun-24 10:33S 33°04' E 152°27'21419.4
2016-Jun-23 23:31S 36°22' E 150°49'11919.9
2016-Jun-23 17:33S 38°02' E 149°29'2221.5
2016-Jun-23 16:33S 38°15' E 149°08'2221.6
2016-Jun-23 15:33S 38°29' E 148°46'8220.4
2016-Jun-23 11:33S 39°06' E 147°13'2121.0
2016-Jun-23 10:33S 39°13' E 146°48'2121.0
2016-Jun-23 09:33S 39°17' E 146°21'2120.9
2016-Jun-23 08:33S 39°08' E 145°56'2221.5
2016-Jun-23 07:33S 38°57' E 145°33'6812.4
2016-Jun-23 02:04S 37°55' E 144°56'7 0.8
2016-Jun-22 17:29S 37°49' E 144°55'0 0.0
2016-Jun-22 16:32S 37°49' E 144°55'0 0.0
2016-Jun-22 15:32S 37°49' E 144°55'0 0.0
2016-Jun-22 14:32S 37°49' E 144°55'0 0.0
2016-Jun-22 13:26S 37°49' E 144°55'0 0.0
2016-Jun-22 12:29S 37°49' E 144°55'0 0.0
2016-Jun-22 08:17S 37°49' E 144°55'0 0.0
2016-Jun-22 01:29S 37°49' E 144°55'0 0.0
2016-Jun-21 19:32S 37°49' E 144°55'0 0.0
2016-Jun-21 18:26S 37°49' E 144°55'0 0.0
2016-Jun-21 17:32S 37°49' E 144°55'0 0.0
2016-Jun-21 16:26S 37°49' E 144°55'0 0.0
2016-Jun-21 15:32S 37°49' E 144°55'0 0.0
2016-Jun-21 14:32S 37°49' E 144°55'0 0.0
2016-Jun-21 13:33S 37°49' E 144°55'4 3.6
2016-Jun-21 12:25S 37°53' E 144°56'9011.4
2016-Jun-21 04:33S 39°07' E 146°01'1817.7
2016-Jun-21 03:32S 39°11' E 146°24'1818.9
2016-Jun-21 02:33S 39°03' E 146°45'1919.4
2016-Jun-21 01:34S 38°54' E 147°07'7918.2
2016-Jun-20 21:13S 38°24' E 148°41'1116.2
2016-Jun-20 20:33S 38°18' E 148°52'1616.1
2016-Jun-20 19:33S 38°09' E 149°09'1515.4
2016-Jun-20 18:33S 38°01' E 149°25'1413.6
2016-Jun-20 17:33S 37°54' E 149°40'1312.8
2016-Jun-20 16:33S 37°47' E 149°54'1313.3
2016-Jun-20 15:34S 37°38' E 150°07'1414.2
2016-Jun-20 14:34S 37°26' E 150°15'1716.7
2016-Jun-20 13:34S 37°10' E 150°21'1717.2
2016-Jun-20 12:33S 36°53' E 150°26'1918.6
2016-Jun-20 11:34S 36°35' E 150°32'2020.2
2016-Jun-20 10:33S 36°15' E 150°38'  
2016-Jun-17 21:27S 33°37' E 151°43'1314.0
2016-Jun-17 20:29S 33°26' E 151°53'2914.7
2016-Jun-17 18:30S 33°02' E 152°13'1616.4
2016-Jun-17 17:33S 32°49' E 152°24'1616.5
2016-Jun-17 16:34S 32°36' E 152°35'1615.8
2016-Jun-17 15:34S 32°22' E 152°45'1615.8
2016-Jun-17 14:33S 32°07' E 152°51'1615.6
2016-Jun-17 13:34S 31°53' E 152°56'24117.0
2016-Jun-16 23:23S 27°56' E 153°54'1718.5
2016-Jun-16 22:27S 27°39' E 153°54'  

Dump ship's entire track history